createdAt,value
2023-03-28T00:02:27.165Z,48.41
2023-03-28T00:05:12.452Z,48.54
2023-03-28T00:07:59.845Z,48.31
2023-03-28T00:10:45.793Z,48.52
2023-03-28T00:13:31.192Z,48.29
2023-03-28T00:16:16.844Z,48.49
2023-03-28T00:19:05.801Z,48.41
2023-03-28T00:21:51.358Z,48.49
2023-03-28T00:24:38.907Z,48.63
2023-03-28T00:27:26.090Z,48.39
2023-03-28T00:30:11.844Z,48.52
2023-03-28T00:32:57.622Z,48.47
2023-03-28T00:35:43.115Z,48.57
2023-03-28T00:38:28.984Z,48.47
2023-03-28T00:41:16.067Z,48.49
2023-03-28T00:44:02.796Z,48.44
2023-03-28T00:46:48.058Z,48.61
2023-03-28T00:49:33.417Z,48.37
2023-03-28T00:52:21.514Z,48.48
2023-03-28T00:55:12.417Z,48.43
2023-03-28T00:57:58.523Z,48.40
2023-03-28T01:00:49.156Z,48.42
2023-03-28T01:03:35.843Z,48.46
2023-03-28T01:06:25.337Z,48.42
2023-03-28T01:09:11.269Z,48.27
2023-03-28T01:11:59.116Z,48.29
2023-03-28T01:14:45.554Z,48.33
2023-03-28T01:17:31.017Z,48.41
2023-03-28T01:20:43.050Z,48.52
2023-03-28T01:24:11.741Z,48.43
2023-03-28T01:27:23.264Z,48.35
2023-03-28T01:30:37.020Z,48.37
2023-03-28T01:34:09.292Z,48.49
2023-03-28T01:36:57.489Z,48.26
2023-03-28T01:39:59.886Z,48.17
2023-03-28T01:43:12.058Z,48.11
2023-03-28T01:46:03.674Z,48.13
2023-03-28T01:49:14.066Z,48.28
2023-03-28T01:52:08.669Z,48.12
2023-03-28T01:55:12.793Z,48.34
2023-03-28T01:58:11.017Z,48.21
2023-03-28T02:01:36.794Z,47.95
2023-03-28T02:04:30.997Z,48.07
2023-03-28T02:07:22.245Z,48.06
2023-03-28T02:10:32.097Z,48.07
2023-03-28T02:13:55.706Z,47.78
2023-03-28T02:17:04.831Z,48.05
2023-03-28T02:20:24.846Z,47.92
2023-03-28T02:23:47.394Z,48.14
2023-03-28T02:27:00.727Z,48.08
2023-03-28T02:29:54.920Z,48.25
2023-03-28T02:33:00.678Z,48.14
2023-03-28T02:36:07.427Z,48.33
2023-03-28T02:39:08.818Z,48.28
2023-03-28T02:42:08.931Z,47.97
2023-03-28T02:45:21.676Z,48.33
2023-03-28T02:48:55.117Z,48.25
2023-03-28T02:52:15.085Z,48.05
2023-03-28T02:55:17.487Z,47.34
2023-03-28T02:58:37.716Z,43.39
2023-03-28T03:01:29.888Z,41.55
2023-03-28T03:04:17.317Z,40.45
2023-03-28T03:07:02.905Z,39.83
2023-03-28T03:09:53.782Z,40.79
2023-03-28T03:12:39.247Z,42.15
2023-03-28T03:15:25.902Z,42.89
2023-03-28T03:18:16.946Z,43.56
2023-03-28T03:21:03.577Z,43.96
2023-03-28T03:23:48.821Z,44.36
2023-03-28T03:26:34.282Z,44.65
2023-03-28T03:29:22.025Z,44.88
2023-03-28T03:32:07.539Z,44.03
2023-03-28T03:35:04.493Z,44.69
2023-03-28T03:37:50.029Z,44.96
2023-03-28T03:40:35.436Z,45.16
2023-03-28T03:43:21.309Z,45.47
2023-03-28T03:46:07.570Z,45.52
2023-03-28T03:48:52.912Z,45.68
2023-03-28T03:51:39.451Z,45.84
2023-03-28T03:54:26.079Z,45.86
2023-03-28T03:57:11.512Z,46.07
2023-03-28T03:59:58.118Z,46.18
2023-03-28T04:02:44.826Z,46.23
2023-03-28T04:05:30.920Z,45.83
2023-03-28T04:08:21.705Z,44.99
2023-03-28T04:11:09.569Z,45.76
2023-03-28T04:14:00.066Z,46.00
2023-03-28T04:16:45.632Z,46.03
2023-03-28T04:19:31.130Z,46.30
2023-03-28T04:22:18.333Z,46.43
2023-03-28T04:25:09.909Z,46.50
2023-03-28T04:27:57.612Z,46.66
2023-03-28T04:30:44.715Z,46.47
2023-03-28T04:33:49.384Z,46.95
2023-03-28T04:36:37.717Z,46.97
2023-03-28T04:39:24.970Z,47.04
2023-03-28T04:45:21.698Z,46.66
2023-03-28T04:48:07.594Z,46.83
2023-03-28T04:50:54.201Z,46.31
2023-03-28T04:53:39.616Z,46.68
2023-03-28T04:56:48.096Z,46.78
2023-03-28T04:59:36.759Z,46.84
2023-03-28T05:02:22.794Z,46.85
2023-03-28T05:05:22.832Z,46.99
2023-03-28T05:08:08.816Z,46.85
2023-03-28T05:10:55.422Z,47.05
2023-03-28T05:13:41.812Z,46.83
2023-03-28T05:16:37.140Z,46.88
2023-03-28T05:19:22.884Z,46.92
2023-03-28T05:22:17.683Z,46.69
2023-03-28T05:25:08.329Z,46.91
2023-03-28T05:27:57.001Z,47.04
2023-03-28T05:30:43.562Z,46.89
2023-03-28T05:33:30.277Z,47.09
2023-03-28T05:36:15.650Z,46.98
2023-03-28T05:39:01.443Z,46.91
2023-03-28T05:41:46.664Z,47.07
2023-03-28T05:44:31.956Z,47.33
2023-03-28T05:47:36.286Z,46.98
2023-03-28T05:50:22.824Z,46.98
2023-03-28T05:53:09.268Z,47.03
2023-03-28T05:55:54.371Z,47.09
2023-03-28T05:58:40.311Z,47.17
2023-03-28T06:01:29.251Z,47.20
2023-03-28T06:04:22.968Z,47.13
2023-03-28T06:07:09.878Z,47.23
2023-03-28T06:09:55.383Z,47.26
2023-03-28T06:12:41.298Z,47.44
2023-03-28T06:15:27.295Z,47.24
2023-03-28T06:18:13.603Z,47.33
2023-03-28T06:21:04.386Z,47.31
2023-03-28T06:23:50.154Z,47.20
2023-03-28T06:26:44.056Z,47.36
2023-03-28T06:29:33.209Z,47.53
2023-03-28T06:32:22.265Z,47.38
2023-03-28T06:35:08.411Z,47.37
2023-03-28T06:37:53.585Z,47.50
2023-03-28T06:40:45.188Z,47.32
2023-03-28T06:43:31.498Z,47.39
2023-03-28T06:46:26.971Z,47.38
2023-03-28T06:49:12.329Z,47.42
2023-03-28T06:52:33.634Z,47.46
2023-03-28T06:55:22.778Z,47.39
2023-03-28T06:58:08.063Z,47.23
2023-03-28T07:01:06.335Z,47.41
2023-03-28T07:03:52.573Z,47.17
2023-03-28T07:06:41.351Z,47.18
2023-03-28T07:09:27.573Z,47.20
2023-03-28T07:12:19.031Z,47.07
2023-03-28T07:15:04.750Z,47.26
2023-03-28T07:17:50.298Z,47.18
2023-03-28T07:20:40.163Z,47.18
2023-03-28T07:23:25.701Z,47.09
2023-03-28T07:26:13.387Z,47.16
2023-03-28T07:28:58.939Z,46.97
2023-03-28T07:31:45.764Z,47.14
2023-03-28T07:34:31.216Z,47.16
2023-03-28T07:37:19.506Z,47.13
2023-03-28T07:40:12.765Z,47.21
2023-03-28T07:42:59.753Z,47.09
2023-03-28T07:45:46.908Z,47.16
2023-03-28T07:48:33.040Z,47.01
2023-03-28T07:51:21.360Z,47.14
2023-03-28T07:54:07.396Z,47.35
2023-03-28T07:56:52.867Z,47.22
2023-03-28T07:59:43.106Z,47.17
2023-03-28T08:02:29.395Z,47.09
2023-03-28T08:05:14.825Z,47.25
2023-03-28T08:08:00.465Z,47.39
2023-03-28T08:10:50.919Z,47.13
2023-03-28T08:16:29.253Z,47.37
2023-03-28T08:19:14.900Z,47.24
2023-03-28T08:22:19.176Z,47.18
2023-03-28T08:25:32.052Z,47.37
2023-03-28T08:28:19.239Z,47.24
2023-03-28T08:31:16.010Z,47.26
2023-03-28T08:34:07.211Z,47.26
2023-03-28T08:36:57.692Z,47.22
2023-03-28T08:39:47.394Z,47.24
2023-03-28T08:42:47.764Z,47.43
2023-03-28T08:45:43.775Z,47.15
2023-03-28T08:48:35.923Z,47.16
2023-03-28T08:51:35.303Z,47.04
2023-03-28T08:54:26.451Z,47.07
2023-03-28T08:57:23.674Z,47.06
2023-03-28T09:00:30.293Z,47.03
2023-03-28T09:03:19.088Z,46.97
2023-03-28T09:06:38.278Z,47.05
2023-03-28T09:09:32.313Z,47.00
2023-03-28T09:12:57.005Z,47.42
2023-03-28T09:15:59.224Z,47.17
2023-03-28T09:19:12.590Z,47.14
2023-03-28T09:22:22.093Z,46.93
2023-03-28T09:25:18.701Z,46.85
2023-03-28T09:28:41.032Z,46.96
2023-03-28T09:31:33.265Z,46.84
2023-03-28T09:34:23.048Z,47.24
2023-03-28T09:37:35.400Z,46.94
2023-03-28T09:40:25.096Z,46.83
2023-03-28T09:43:33.880Z,46.89
2023-03-28T09:46:42.614Z,47.01
2023-03-28T09:49:46.324Z,47.08
2023-03-28T09:52:33.219Z,46.76
2023-03-28T09:55:28.471Z,46.91
2023-03-28T09:58:15.003Z,46.93
2023-03-28T10:01:24.448Z,46.90
2023-03-28T10:04:28.661Z,46.63
2023-03-28T10:07:45.640Z,46.78
2023-03-28T10:10:58.945Z,46.81
2023-03-28T10:13:51.733Z,46.81
2023-03-28T10:16:37.286Z,46.83
2023-03-28T10:19:46.961Z,46.73
2023-03-28T10:22:39.987Z,46.79
2023-03-28T10:25:49.567Z,46.76
2023-03-28T10:28:36.951Z,46.78
2023-03-28T10:31:29.534Z,46.89
2023-03-28T10:34:29.976Z,46.97
2023-03-28T10:37:36.433Z,46.66
2023-03-28T10:40:58.579Z,46.89
2023-03-28T10:43:59.647Z,46.80
2023-03-28T10:47:02.446Z,46.78
2023-03-28T10:49:58.047Z,46.79
2023-03-28T10:53:28.862Z,46.85
2023-03-28T10:56:38.491Z,46.87
2023-03-28T10:59:52.657Z,46.74
2023-03-28T11:02:54.032Z,46.51
2023-03-28T11:06:08.129Z,46.76
2023-03-28T11:09:31.789Z,46.69
2023-03-28T11:13:08.415Z,46.70
2023-03-28T11:16:10.702Z,46.78
2023-03-28T11:19:40.490Z,46.80
2023-03-28T11:22:59.252Z,46.79
2023-03-28T11:26:13.303Z,46.68
2023-03-28T11:29:42.663Z,46.71
2023-03-28T11:32:40.776Z,46.68
2023-03-28T11:35:32.676Z,46.86
2023-03-28T11:38:26.755Z,46.77
2023-03-28T11:41:19.147Z,47.22
2023-03-28T11:44:44.085Z,46.98
2023-03-28T11:47:41.556Z,46.80
2023-03-28T11:51:03.256Z,46.86
2023-03-28T11:54:03.746Z,46.88
2023-03-28T11:56:57.645Z,46.96
2023-03-28T12:00:23.065Z,47.25
2023-03-28T12:03:23.731Z,46.85
2023-03-28T12:06:39.479Z,46.87
2023-03-28T12:09:55.652Z,47.00
2023-03-28T12:13:06.763Z,46.94
2023-03-28T12:16:03.907Z,46.97
2023-03-28T12:19:10.922Z,47.04
2023-03-28T12:22:19.343Z,47.13
2023-03-28T12:25:31.346Z,47.19
2023-03-28T12:28:39.030Z,47.17
2023-03-28T12:31:42.915Z,47.34
2023-03-28T12:34:42.642Z,47.19
2023-03-28T12:38:00.686Z,47.23
2023-03-28T12:41:00.456Z,47.25
2023-03-28T12:44:21.056Z,47.18
2023-03-28T12:47:22.684Z,47.08
2023-03-28T12:50:26.707Z,47.15
2023-03-28T12:53:15.731Z,47.18
2023-03-28T12:56:03.494Z,47.18
2023-03-28T12:58:52.693Z,47.10
2023-03-28T13:01:50.393Z,45.49
2023-03-28T13:05:16.145Z,46.12
2023-03-28T13:08:09.678Z,46.21
2023-03-28T13:11:13.802Z,46.65
2023-03-28T13:14:18.936Z,46.73
2023-03-28T13:17:28.160Z,46.62
2023-03-28T13:20:17.489Z,45.28
2023-03-28T13:23:07.972Z,45.74
2023-03-28T13:25:56.574Z,46.08
2023-03-28T13:28:45.098Z,46.32
2023-03-28T13:31:32.944Z,44.89
2023-03-28T13:34:25.814Z,44.50
2023-03-28T13:37:32.240Z,44.78
2023-03-28T13:40:40.525Z,45.04
2023-03-28T13:43:35.019Z,45.46
2023-03-28T13:46:30.388Z,45.71
2023-03-28T13:49:46.372Z,46.16
2023-03-28T13:52:33.294Z,46.70
2023-03-28T13:55:26.121Z,47.09
2023-03-28T13:58:18.570Z,47.16
2023-03-28T14:01:16.324Z,47.38
2023-03-28T14:04:02.867Z,47.35
2023-03-28T14:06:53.211Z,47.36
2023-03-28T14:09:38.638Z,47.27
2023-03-28T14:12:29.230Z,47.27
2023-03-28T14:15:21.171Z,47.20
2023-03-28T14:18:16.015Z,47.28
2023-03-28T14:21:02.376Z,47.32
2023-03-28T14:24:04.340Z,47.31
2023-03-28T14:26:51.360Z,47.13
2023-03-28T14:29:59.854Z,47.21
2023-03-28T14:33:10.884Z,47.30
2023-03-28T14:36:01.906Z,47.42
2023-03-28T14:38:47.361Z,47.46
2023-03-28T14:41:36.392Z,47.21
2023-03-28T14:44:23.746Z,47.14
2023-03-28T14:47:23.493Z,45.71
2023-03-28T14:50:16.265Z,46.14
2023-03-28T14:53:08.123Z,45.30
2023-03-28T14:55:58.739Z,44.15
2023-03-28T14:58:49.937Z,45.77
2023-03-28T15:01:37.868Z,47.01
2023-03-28T15:04:25.836Z,47.57
2023-03-28T15:07:21.417Z,47.42
2023-03-28T15:10:22.827Z,47.84
2023-03-28T15:13:12.680Z,47.64
2023-03-28T15:15:58.550Z,47.34
2023-03-28T15:18:47.673Z,47.04
2023-03-28T15:21:38.452Z,45.52
2023-03-28T15:24:26.908Z,46.33
2023-03-28T15:27:30.886Z,46.44
2023-03-28T15:30:18.968Z,46.65
2023-03-28T15:33:06.746Z,46.96
2023-03-28T15:36:15.172Z,46.75
2023-03-28T15:39:24.594Z,47.06
2023-03-28T15:42:19.316Z,47.03
2023-03-28T15:45:41.435Z,47.36
2023-03-28T15:48:27.806Z,47.25
2023-03-28T15:51:16.884Z,47.15
2023-03-28T15:54:02.535Z,46.21
2023-03-28T15:56:48.779Z,46.43
2023-03-28T15:59:42.216Z,46.52
2023-03-28T16:02:27.960Z,46.51
2023-03-28T16:05:36.263Z,46.45
2023-03-28T16:08:31.590Z,45.61
2023-03-28T16:11:27.164Z,45.80
2023-03-28T16:14:45.949Z,46.37
2023-03-28T16:17:58.825Z,46.62
2023-03-28T16:20:54.106Z,46.88
2023-03-28T16:23:40.496Z,46.74
2023-03-28T16:26:26.663Z,46.74
2023-03-28T16:29:11.792Z,46.68
2023-03-28T16:31:57.227Z,46.83
2023-03-28T16:34:43.462Z,46.76
2023-03-28T16:37:28.825Z,46.76
2023-03-28T16:40:14.407Z,46.87
2023-03-28T16:43:00.317Z,47.01
2023-03-28T16:45:47.961Z,46.93
2023-03-28T16:48:36.979Z,47.73
2023-03-28T16:51:23.257Z,47.84
2023-03-28T16:54:10.193Z,48.37
2023-03-28T16:56:55.856Z,48.48
2023-03-28T16:59:42.550Z,48.95
2023-03-28T17:02:28.323Z,48.83
2023-03-28T17:05:14.758Z,48.59
2023-03-28T17:08:03.519Z,48.85
2023-03-28T17:10:51.362Z,48.55
2023-03-28T17:13:38.930Z,48.39
2023-03-28T17:16:24.289Z,47.91
2023-03-28T17:19:09.367Z,47.45
2023-03-28T17:21:57.752Z,47.25
2023-03-28T17:24:46.592Z,46.94
2023-03-28T17:27:31.889Z,46.89
2023-03-28T17:30:17.455Z,46.73
2023-03-28T17:33:03.764Z,47.29
2023-03-28T17:35:50.731Z,47.37
2023-03-28T17:38:45.001Z,47.63
2023-03-28T17:41:32.346Z,46.98
2023-03-28T17:44:17.584Z,46.07
2023-03-28T17:47:03.433Z,44.94
2023-03-28T17:49:49.317Z,44.69
2023-03-28T17:52:35.110Z,44.05
2023-03-28T17:55:20.747Z,43.85
2023-03-28T17:58:06.229Z,43.81
2023-03-28T18:00:51.750Z,43.54
2023-03-28T18:03:37.591Z,43.34
2023-03-28T18:06:43.282Z,43.75
2023-03-28T18:09:28.641Z,44.23
2023-03-28T18:12:14.013Z,43.99
2023-03-28T18:15:01.097Z,43.84
2023-03-28T18:17:47.448Z,43.39
2023-03-28T18:20:33.025Z,43.36
2023-03-28T18:23:18.376Z,43.41
2023-03-28T18:26:04.612Z,43.25
2023-03-28T18:28:50.090Z,43.03
2023-03-28T18:31:36.939Z,42.71
2023-03-28T18:34:22.540Z,42.69
2023-03-28T18:37:07.771Z,42.51
2023-03-28T18:39:54.499Z,42.28
2023-03-28T18:42:40.243Z,42.21
2023-03-28T18:45:25.729Z,42.49
2023-03-28T18:48:11.437Z,42.25
2023-03-28T18:50:58.393Z,42.11
2023-03-28T18:53:43.820Z,42.29
2023-03-28T18:56:29.803Z,41.75
2023-03-28T18:59:15.168Z,41.96
2023-03-28T19:02:00.983Z,41.39
2023-03-28T19:04:47.378Z,41.47
2023-03-28T19:07:32.882Z,41.39
2023-03-28T19:10:18.264Z,41.56
2023-03-28T19:13:03.834Z,41.16
2023-03-28T19:15:59.907Z,41.06
2023-03-28T19:18:49.697Z,40.66
2023-03-28T19:21:34.864Z,40.87
2023-03-28T19:24:22.261Z,40.49
2023-03-28T19:27:07.756Z,40.61
2023-03-28T19:29:52.977Z,40.57
2023-03-28T19:32:38.298Z,40.52
2023-03-28T19:35:23.452Z,40.60
2023-03-28T19:38:08.896Z,40.43
2023-03-28T19:40:58.686Z,40.41
2023-03-28T19:43:44.374Z,40.26
2023-03-28T19:46:33.784Z,40.20
2023-03-28T19:49:19.782Z,40.00
2023-03-28T19:52:05.689Z,40.02
2023-03-28T19:54:50.843Z,40.02
2023-03-28T19:57:36.324Z,39.99
2023-03-28T20:00:21.865Z,39.71
2023-03-28T20:03:07.185Z,39.06
2023-03-28T20:05:52.608Z,39.54
2023-03-28T20:08:38.622Z,39.26
2023-03-28T20:11:24.112Z,39.17
2023-03-28T20:14:10.140Z,39.19
2023-03-28T20:16:55.514Z,39.15
2023-03-28T20:19:40.759Z,39.28
2023-03-28T20:22:29.773Z,39.04
2023-03-28T20:25:16.018Z,38.99
2023-03-28T20:28:05.094Z,39.17
2023-03-28T20:30:52.427Z,39.20
2023-03-28T20:33:38.525Z,39.04
2023-03-28T20:36:23.986Z,39.13
2023-03-28T20:39:09.280Z,38.65
2023-03-28T20:41:54.910Z,38.60
2023-03-28T20:44:40.501Z,38.51
2023-03-28T20:47:25.942Z,38.64
2023-03-28T20:50:11.433Z,38.37
2023-03-28T20:52:56.937Z,38.56
2023-03-28T20:55:43.320Z,38.40
2023-03-28T20:58:30.580Z,38.14
2023-03-28T21:01:17.489Z,38.17
2023-03-28T21:04:04.581Z,38.05
2023-03-28T21:06:50.329Z,38.12
2023-03-28T21:09:35.869Z,37.96
2023-03-28T21:12:22.270Z,37.97
2023-03-28T21:15:09.042Z,37.98
2023-03-28T21:17:54.638Z,37.76
2023-03-28T21:20:39.932Z,38.06
2023-03-28T21:23:25.325Z,37.67
2023-03-28T21:26:13.224Z,37.62
2023-03-28T21:28:59.415Z,37.49
2023-03-28T21:31:45.091Z,37.72
2023-03-28T21:34:36.869Z,37.43
2023-03-28T21:37:22.360Z,37.31
2023-03-28T21:40:08.684Z,37.35
2023-03-28T21:42:53.876Z,37.36
2023-03-28T21:45:39.385Z,37.26
2023-03-28T21:48:24.714Z,37.30
2023-03-28T21:51:09.889Z,37.36
2023-03-28T21:53:55.026Z,37.26
2023-03-28T21:56:40.384Z,37.11
2023-03-28T21:59:26.326Z,37.03
2023-03-28T22:02:11.561Z,36.93
2023-03-28T22:04:56.987Z,36.77
2023-03-28T22:07:42.075Z,36.80
2023-03-28T22:10:27.392Z,36.87
2023-03-28T22:13:13.977Z,36.76
2023-03-28T22:15:59.915Z,36.85
2023-03-28T22:18:49.731Z,36.78
2023-03-28T22:21:37.050Z,36.65
2023-03-28T22:24:24.449Z,36.56
2023-03-28T22:27:10.744Z,36.88
2023-03-28T22:29:57.313Z,36.77
2023-03-28T22:32:42.669Z,36.26
2023-03-28T22:35:27.964Z,36.67
2023-03-28T22:38:13.516Z,36.45
2023-03-28T22:40:59.103Z,36.39
2023-03-28T22:43:45.064Z,36.32
2023-03-28T22:46:30.875Z,36.45
2023-03-28T22:49:22.081Z,36.38
2023-03-28T22:52:07.324Z,36.52
2023-03-28T22:54:53.064Z,36.32
2023-03-28T22:57:38.240Z,36.48
2023-03-28T23:00:23.893Z,36.26
2023-03-28T23:03:10.346Z,36.46
2023-03-28T23:05:55.567Z,36.21
2023-03-28T23:08:40.809Z,36.21
2023-03-28T23:11:26.264Z,36.09
2023-03-28T23:14:11.771Z,36.19
2023-03-28T23:16:58.222Z,36.26
2023-03-28T23:19:43.639Z,35.98
2023-03-28T23:22:29.255Z,35.92
2023-03-28T23:25:18.390Z,36.13
2023-03-28T23:28:03.933Z,36.12
2023-03-28T23:30:49.150Z,35.89
2023-03-28T23:33:34.520Z,35.93
2023-03-28T23:36:20.985Z,36.06
2023-03-28T23:39:11.118Z,36.00
2023-03-28T23:41:56.763Z,36.04
2023-03-28T23:44:42.403Z,36.19
2023-03-28T23:47:27.701Z,36.44
2023-03-28T23:50:13.045Z,36.59
2023-03-28T23:52:58.391Z,36.82
2023-03-28T23:55:43.622Z,36.87
2023-03-28T23:58:29.029Z,37.01
